sensor_id;sensor_type;location;lat;lon;timestamp;temperature;humidity
80412;SHT30;69749;42.684;23.360;2023-08-30T00:02:08;22.30;72.56
80412;SHT30;69749;42.684;23.360;2023-08-30T00:04:34;22.29;71.14
80412;SHT30;69749;42.684;23.360;2023-08-30T00:07:00;21.95;72.37
80412;SHT30;69749;42.684;23.360;2023-08-30T00:09:25;21.92;73.79
80412;SHT30;69749;42.684;23.360;2023-08-30T00:11:50;22.08;72.89
80412;SHT30;69749;42.684;23.360;2023-08-30T00:14:16;22.15;71.83
80412;SHT30;69749;42.684;23.360;2023-08-30T00:16:41;22.23;71.08
80412;SHT30;69749;42.684;23.360;2023-08-30T00:19:07;22.26;70.86
80412;SHT30;69749;42.684;23.360;2023-08-30T00:21:32;22.32;70.32
80412;SHT30;69749;42.684;23.360;2023-08-30T00:23:57;22.33;68.37
80412;SHT30;69749;42.684;23.360;2023-08-30T00:26:23;22.36;68.27
80412;SHT30;69749;42.684;23.360;2023-08-30T00:28:48;22.35;67.81
80412;SHT30;69749;42.684;23.360;2023-08-30T00:31:14;22.11;67.38
80412;SHT30;69749;42.684;23.360;2023-08-30T00:33:39;21.64;68.69
80412;SHT30;69749;42.684;23.360;2023-08-30T00:36:04;21.44;70.13
80412;SHT30;69749;42.684;23.360;2023-08-30T00:38:33;21.64;69.88
80412;SHT30;69749;42.684;23.360;2023-08-30T00:40:58;21.75;68.82
80412;SHT30;69749;42.684;23.360;2023-08-30T00:43:24;21.70;68.76
80412;SHT30;69749;42.684;23.360;2023-08-30T00:45:50;21.41;69.34
80412;SHT30;69749;42.684;23.360;2023-08-30T00:48:16;21.24;69.58
80412;SHT30;69749;42.684;23.360;2023-08-30T00:50:43;21.18;70.61
80412;SHT30;69749;42.684;23.360;2023-08-30T00:53:10;21.34;69.85
80412;SHT30;69749;42.684;23.360;2023-08-30T00:55:37;21.50;69.86
80412;SHT30;69749;42.684;23.360;2023-08-30T00:58:03;21.60;69.28
80412;SHT30;69749;42.684;23.360;2023-08-30T01:00:29;21.70;68.52
80412;SHT30;69749;42.684;23.360;2023-08-30T01:02:56;21.75;68.39
80412;SHT30;69749;42.684;23.360;2023-08-30T01:05:22;21.81;68.37
80412;SHT30;69749;42.684;23.360;2023-08-30T01:07:49;21.85;67.04
80412;SHT30;69749;42.684;23.360;2023-08-30T01:10:14;21.89;65.22
80412;SHT30;69749;42.684;23.360;2023-08-30T01:12:44;21.77;67.65
80412;SHT30;69749;42.684;23.360;2023-08-30T01:15:13;21.84;68.02
80412;SHT30;69749;42.684;23.360;2023-08-30T01:17:41;21.91;66.97
80412;SHT30;69749;42.684;23.360;2023-08-30T01:20:08;21.88;67.26
80412;SHT30;69749;42.684;23.360;2023-08-30T01:25:22;21.77;67.04
80412;SHT30;69749;42.684;23.360;2023-08-30T01:27:51;21.75;65.50
80412;SHT30;69749;42.684;23.360;2023-08-30T01:30:17;21.82;67.07
80412;SHT30;69749;42.684;23.360;2023-08-30T01:32:44;21.89;66.17
80412;SHT30;69749;42.684;23.360;2023-08-30T01:35:12;21.87;66.22
80412;SHT30;69749;42.684;23.360;2023-08-30T01:37:44;21.88;66.43
80412;SHT30;69749;42.684;23.360;2023-08-30T01:40:11;21.88;66.99
80412;SHT30;69749;42.684;23.360;2023-08-30T01:42:38;21.94;66.72
80412;SHT30;69749;42.684;23.360;2023-08-30T01:45:06;21.92;66.86
80412;SHT30;69749;42.684;23.360;2023-08-30T01:47:34;21.77;67.48
80412;SHT30;69749;42.684;23.360;2023-08-30T01:50:01;21.61;67.81
80412;SHT30;69749;42.684;23.360;2023-08-30T01:52:29;21.60;67.48
80412;SHT30;69749;42.684;23.360;2023-08-30T01:54:55;21.75;67.35
80412;SHT30;69749;42.684;23.360;2023-08-30T01:57:20;21.87;66.71
80412;SHT30;69749;42.684;23.360;2023-08-30T01:59:46;21.97;65.62
80412;SHT30;69749;42.684;23.360;2023-08-30T02:02:11;22.05;65.61
80412;SHT30;69749;42.684;23.360;2023-08-30T02:04:37;22.06;64.09
80412;SHT30;69749;42.684;23.360;2023-08-30T02:07:04;22.01;64.55
80412;SHT30;69749;42.684;23.360;2023-08-30T02:09:48;22.02;64.97
80412;SHT30;69749;42.684;23.360;2023-08-30T02:12:16;21.87;66.66
80412;SHT30;69749;42.684;23.360;2023-08-30T02:14:45;21.88;67.07
80412;SHT30;69749;42.684;23.360;2023-08-30T02:17:15;21.88;67.01
80412;SHT30;69749;42.684;23.360;2023-08-30T02:19:43;21.94;66.03
80412;SHT30;69749;42.684;23.360;2023-08-30T02:22:09;21.94;66.29
80412;SHT30;69749;42.684;23.360;2023-08-30T02:24:34;21.67;67.28
80412;SHT30;69749;42.684;23.360;2023-08-30T02:26:59;21.51;67.98
80412;SHT30;69749;42.684;23.360;2023-08-30T02:29:25;21.64;67.85
80412;SHT30;69749;42.684;23.360;2023-08-30T02:31:50;21.67;67.62
80412;SHT30;69749;42.684;23.360;2023-08-30T02:34:16;21.65;66.70
80412;SHT30;69749;42.684;23.360;2023-08-30T02:36:41;21.71;66.06
80412;SHT30;69749;42.684;23.360;2023-08-30T02:39:07;21.68;65.46
80412;SHT30;69749;42.684;23.360;2023-08-30T02:41:32;21.65;65.86
80412;SHT30;69749;42.684;23.360;2023-08-30T02:43:58;21.67;65.48
80412;SHT30;69749;42.684;23.360;2023-08-30T02:46:23;21.62;66.99
80412;SHT30;69749;42.684;23.360;2023-08-30T02:48:48;21.40;68.61
80412;SHT30;69749;42.684;23.360;2023-08-30T02:51:14;21.26;68.84
80412;SHT30;69749;42.684;23.360;2023-08-30T02:53:39;21.30;68.68
80412;SHT30;69749;42.684;23.360;2023-08-30T02:56:05;21.33;68.03
80412;SHT30;69749;42.684;23.360;2023-08-30T02:58:30;21.34;67.84
80412;SHT30;69749;42.684;23.360;2023-08-30T03:00:55;21.26;66.36
80412;SHT30;69749;42.684;23.360;2023-08-30T03:03:21;21.30;66.05
80412;SHT30;69749;42.684;23.360;2023-08-30T03:05:46;21.30;65.78
80412;SHT30;69749;42.684;23.360;2023-08-30T03:08:12;21.16;67.89
80412;SHT30;69749;42.684;23.360;2023-08-30T03:10:37;20.99;69.50
80412;SHT30;69749;42.684;23.360;2023-08-30T03:13:03;20.96;69.46
80412;SHT30;69749;42.684;23.360;2023-08-30T03:15:31;20.96;69.98
80412;SHT30;69749;42.684;23.360;2023-08-30T03:17:57;21.03;69.36
80412;SHT30;69749;42.684;23.360;2023-08-30T03:20:22;21.12;68.73
80412;SHT30;69749;42.684;23.360;2023-08-30T03:22:48;21.18;68.11
80412;SHT30;69749;42.684;23.360;2023-08-30T03:25:13;21.20;68.28
80412;SHT30;69749;42.684;23.360;2023-08-30T03:27:39;21.22;68.04
80412;SHT30;69749;42.684;23.360;2023-08-30T03:30:05;21.23;67.62
80412;SHT30;69749;42.684;23.360;2023-08-30T03:32:31;21.26;66.97
80412;SHT30;69749;42.684;23.360;2023-08-30T03:34:57;21.27;67.88
80412;SHT30;69749;42.684;23.360;2023-08-30T03:37:23;21.23;68.85
80412;SHT30;69749;42.684;23.360;2023-08-30T03:39:48;21.26;68.85
80412;SHT30;69749;42.684;23.360;2023-08-30T03:42:14;21.27;68.81
80412;SHT30;69749;42.684;23.360;2023-08-30T03:44:39;21.24;69.86
80412;SHT30;69749;42.684;23.360;2023-08-30T03:47:05;21.29;69.66
80412;SHT30;69749;42.684;23.360;2023-08-30T03:49:30;21.33;68.79
80412;SHT30;69749;42.684;23.360;2023-08-30T03:51:56;21.31;68.70
80412;SHT30;69749;42.684;23.360;2023-08-30T03:54:21;21.31;68.65
80412;SHT30;69749;42.684;23.360;2023-08-30T03:56:47;21.34;68.11
80412;SHT30;69749;42.684;23.360;2023-08-30T03:59:12;21.31;67.90
80412;SHT30;69749;42.684;23.360;2023-08-30T04:01:40;21.30;68.10
80412;SHT30;69749;42.684;23.360;2023-08-30T04:04:05;21.30;68.31
80412;SHT30;69749;42.684;23.360;2023-08-30T04:06:31;21.34;68.35
80412;SHT30;69749;42.684;23.360;2023-08-30T04:08:57;21.29;68.61
80412;SHT30;69749;42.684;23.360;2023-08-30T04:11:23;21.24;69.17
80412;SHT30;69749;42.684;23.360;2023-08-30T04:13:51;21.24;69.18
80412;SHT30;69749;42.684;23.360;2023-08-30T04:16:17;21.23;69.48
80412;SHT30;69749;42.684;23.360;2023-08-30T04:18:43;21.26;69.24
80412;SHT30;69749;42.684;23.360;2023-08-30T04:21:08;21.31;69.32
80412;SHT30;69749;42.684;23.360;2023-08-30T04:23:34;21.31;69.76
80412;SHT30;69749;42.684;23.360;2023-08-30T04:25:59;21.36;68.64
80412;SHT30;69749;42.684;23.360;2023-08-30T04:28:25;21.44;68.32
80412;SHT30;69749;42.684;23.360;2023-08-30T04:30:53;21.51;67.96
80412;SHT30;69749;42.684;23.360;2023-08-30T04:33:19;21.70;67.18
80412;SHT30;69749;42.684;23.360;2023-08-30T04:35:50;21.80;66.21
80412;SHT30;69749;42.684;23.360;2023-08-30T04:38:15;21.67;66.66
80412;SHT30;69749;42.684;23.360;2023-08-30T04:40:41;21.84;66.66
80412;SHT30;69749;42.684;23.360;2023-08-30T04:43:06;22.01;66.38
80412;SHT30;69749;42.684;23.360;2023-08-30T04:45:34;22.09;65.73
80412;SHT30;69749;42.684;23.360;2023-08-30T04:47:59;22.05;66.95
80412;SHT30;69749;42.684;23.360;2023-08-30T04:50:25;22.11;66.50
80412;SHT30;69749;42.684;23.360;2023-08-30T04:52:50;22.20;66.14
80412;SHT30;69749;42.684;23.360;2023-08-30T04:55:16;22.13;65.57
80412;SHT30;69749;42.684;23.360;2023-08-30T04:57:41;22.05;65.66
80412;SHT30;69749;42.684;23.360;2023-08-30T05:00:13;22.11;65.96
80412;SHT30;69749;42.684;23.360;2023-08-30T05:02:39;22.16;65.74
80412;SHT30;69749;42.684;23.360;2023-08-30T05:05:06;22.16;65.57
80412;SHT30;69749;42.684;23.360;2023-08-30T05:07:31;22.25;64.70
80412;SHT30;69749;42.684;23.360;2023-08-30T05:09:57;22.19;64.56
80412;SHT30;69749;42.684;23.360;2023-08-30T05:12:22;22.32;63.60
80412;SHT30;69749;42.684;23.360;2023-08-30T05:14:48;22.48;62.49
80412;SHT30;69749;42.684;23.360;2023-08-30T05:17:13;22.16;63.45
80412;SHT30;69749;42.684;23.360;2023-08-30T05:19:38;22.32;63.25
80412;SHT30;69749;42.684;23.360;2023-08-30T05:22:04;22.69;62.24
80412;SHT30;69749;42.684;23.360;2023-08-30T05:24:29;23.14;60.84
80412;SHT30;69749;42.684;23.360;2023-08-30T05:26:54;23.63;58.62
80412;SHT30;69749;42.684;23.360;2023-08-30T05:29:20;24.30;56.66
80412;SHT30;69749;42.684;23.360;2023-08-30T05:31:45;24.96;55.30
80412;SHT30;69749;42.684;23.360;2023-08-30T05:34:11;25.03;53.79
80412;SHT30;69749;42.684;23.360;2023-08-30T05:36:36;24.98;54.08
80412;SHT30;69749;42.684;23.360;2023-08-30T05:39:02;25.56;51.82
80412;SHT30;69749;42.684;23.360;2023-08-30T05:41:29;26.53;48.36
80412;SHT30;69749;42.684;23.360;2023-08-30T05:43:54;27.81;45.55
80412;SHT30;69749;42.684;23.360;2023-08-30T05:46:19;29.02;42.73
80412;SHT30;69749;42.684;23.360;2023-08-30T05:48:45;29.45;39.55
80412;SHT30;69749;42.684;23.360;2023-08-30T05:51:10;28.92;40.10
80412;SHT30;69749;42.684;23.360;2023-08-30T05:53:36;29.40;39.46
80412;SHT30;69749;42.684;23.360;2023-08-30T05:56:02;29.76;39.08
80412;SHT30;69749;42.684;23.360;2023-08-30T05:58:28;29.56;40.43
80412;SHT30;69749;42.684;23.360;2023-08-30T06:00:53;30.39;38.26
80412;SHT30;69749;42.684;23.360;2023-08-30T06:03:18;31.27;36.58
80412;SHT30;69749;42.684;23.360;2023-08-30T06:05:44;32.09;34.69
80412;SHT30;69749;42.684;23.360;2023-08-30T06:08:09;32.16;34.88
80412;SHT30;69749;42.684;23.360;2023-08-30T06:10:35;32.70;34.08
80412;SHT30;69749;42.684;23.360;2023-08-30T06:13:01;32.90;33.83
80412;SHT30;69749;42.684;23.360;2023-08-30T06:15:28;33.36;32.99
80412;SHT30;69749;42.684;23.360;2023-08-30T06:17:53;33.70;31.98
80412;SHT30;69749;42.684;23.360;2023-08-30T06:20:19;34.00;31.64
80412;SHT30;69749;42.684;23.360;2023-08-30T06:22:44;34.49;30.95
80412;SHT30;69749;42.684;23.360;2023-08-30T06:25:09;35.00;30.96
80412;SHT30;69749;42.684;23.360;2023-08-30T06:27:41;35.47;29.45
80412;SHT30;69749;42.684;23.360;2023-08-30T06:30:08;35.76;29.31
80412;SHT30;69749;42.684;23.360;2023-08-30T06:32:33;36.24;29.33
80412;SHT30;69749;42.684;23.360;2023-08-30T06:34:59;36.36;28.30
80412;SHT30;69749;42.684;23.360;2023-08-30T06:37:24;36.59;28.34
80412;SHT30;69749;42.684;23.360;2023-08-30T06:39:50;36.98;27.35
80412;SHT30;69749;42.684;23.360;2023-08-30T06:42:15;37.24;26.99
80412;SHT30;69749;42.684;23.360;2023-08-30T06:44:41;36.94;26.89
80412;SHT30;69749;42.684;23.360;2023-08-30T06:47:07;37.37;26.26
80412;SHT30;69749;42.684;23.360;2023-08-30T06:49:32;37.08;26.31
80412;SHT30;69749;42.684;23.360;2023-08-30T06:51:59;36.38;27.09
80412;SHT30;69749;42.684;23.360;2023-08-30T06:54:28;36.69;27.04
80412;SHT30;69749;42.684;23.360;2023-08-30T06:57:01;37.38;26.72
80412;SHT30;69749;42.684;23.360;2023-08-30T06:59:27;37.41;27.48
80412;SHT30;69749;42.684;23.360;2023-08-30T07:01:53;37.35;27.74
80412;SHT30;69749;42.684;23.360;2023-08-30T07:04:18;38.24;26.96
80412;SHT30;69749;42.684;23.360;2023-08-30T07:06:44;38.87;25.98
80412;SHT30;69749;42.684;23.360;2023-08-30T07:09:09;38.87;26.39
80412;SHT30;69749;42.684;23.360;2023-08-30T07:11:37;39.49;25.13
80412;SHT30;69749;42.684;23.360;2023-08-30T07:14:02;39.58;24.99
80412;SHT30;69749;42.684;23.360;2023-08-30T07:16:27;39.48;24.72
80412;SHT30;69749;42.684;23.360;2023-08-30T07:18:53;40.07;24.31
80412;SHT30;69749;42.684;23.360;2023-08-30T07:31:34;40.74;23.64
80412;SHT30;69749;42.684;23.360;2023-08-30T07:34:00;41.70;23.10
80412;SHT30;69749;42.684;23.360;2023-08-30T07:36:30;42.38;22.21
80412;SHT30;69749;42.684;23.360;2023-08-30T07:38:57;42.87;22.02
80412;SHT30;69749;42.684;23.360;2023-08-30T07:41:23;43.11;21.57
80412;SHT30;69749;42.684;23.360;2023-08-30T07:43:48;43.22;21.17
80412;SHT30;69749;42.684;23.360;2023-08-30T07:46:13;41.97;22.45
80412;SHT30;69749;42.684;23.360;2023-08-30T07:48:39;42.35;22.17
80412;SHT30;69749;42.684;23.360;2023-08-30T07:51:04;42.31;21.99
80412;SHT30;69749;42.684;23.360;2023-08-30T07:53:30;42.63;22.01
80412;SHT30;69749;42.684;23.360;2023-08-30T07:55:55;43.19;21.62
80412;SHT30;69749;42.684;23.360;2023-08-30T07:58:20;43.04;20.96
80412;SHT30;69749;42.684;23.360;2023-08-30T08:00:50;43.07;21.08
80412;SHT30;69749;42.684;23.360;2023-08-30T08:03:16;43.17;21.08
80412;SHT30;69749;42.684;23.360;2023-08-30T08:05:42;42.66;21.63
80412;SHT30;69749;42.684;23.360;2023-08-30T08:08:07;42.53;21.76
80412;SHT30;69749;42.684;23.360;2023-08-30T08:10:33;41.81;22.07
80412;SHT30;69749;42.684;23.360;2023-08-30T08:13:01;40.82;22.69
80412;SHT30;69749;42.684;23.360;2023-08-30T08:15:27;38.92;23.41
80412;SHT30;69749;42.684;23.360;2023-08-30T08:17:54;38.02;25.25
80412;SHT30;69749;42.684;23.360;2023-08-30T08:20:19;38.05;25.59
80412;SHT30;69749;42.684;23.360;2023-08-30T08:22:45;37.76;24.99
80412;SHT30;69749;42.684;23.360;2023-08-30T08:25:11;37.61;24.60
80412;SHT30;69749;42.684;23.360;2023-08-30T08:27:36;37.58;25.61
80412;SHT30;69749;42.684;23.360;2023-08-30T08:30:03;37.58;24.26
80412;SHT30;69749;42.684;23.360;2023-08-30T08:32:29;37.16;25.04
80412;SHT30;69749;42.684;23.360;2023-08-30T08:34:55;36.98;25.72
80412;SHT30;69749;42.684;23.360;2023-08-30T08:37:21;36.53;26.29
80412;SHT30;69749;42.684;23.360;2023-08-30T08:39:46;36.19;26.93
80412;SHT30;69749;42.684;23.360;2023-08-30T08:42:13;36.42;27.36
80412;SHT30;69749;42.684;23.360;2023-08-30T08:44:40;36.06;25.28
80412;SHT30;69749;42.684;23.360;2023-08-30T08:47:07;35.65;26.17
80412;SHT30;69749;42.684;23.360;2023-08-30T08:49:32;35.60;26.77
80412;SHT30;69749;42.684;23.360;2023-08-30T08:51:58;35.42;26.98
80412;SHT30;69749;42.684;23.360;2023-08-30T08:54:24;35.65;26.95
80412;SHT30;69749;42.684;23.360;2023-08-30T08:56:50;35.34;26.59
80412;SHT30;69749;42.684;23.360;2023-08-30T08:59:16;35.25;26.81
80412;SHT30;69749;42.684;23.360;2023-08-30T09:01:42;35.16;26.62
80412;SHT30;69749;42.684;23.360;2023-08-30T09:04:10;35.07;27.39
80412;SHT30;69749;42.684;23.360;2023-08-30T09:06:37;34.96;27.57
80412;SHT30;69749;42.684;23.360;2023-08-30T09:09:03;34.18;28.37
80412;SHT30;69749;42.684;23.360;2023-08-30T09:11:30;33.94;29.09
80412;SHT30;69749;42.684;23.360;2023-08-30T09:13:55;33.77;29.26
80412;SHT30;69749;42.684;23.360;2023-08-30T09:16:21;34.00;29.63
80412;SHT30;69749;42.684;23.360;2023-08-30T09:19:00;34.18;29.13
80412;SHT30;69749;42.684;23.360;2023-08-30T09:21:26;34.16;29.04
80412;SHT30;69749;42.684;23.360;2023-08-30T09:24:05;34.29;28.88
80412;SHT30;69749;42.684;23.360;2023-08-30T09:26:33;34.24;29.08
80412;SHT30;69749;42.684;23.360;2023-08-30T09:29:06;34.08;29.44
80412;SHT30;69749;42.684;23.360;2023-08-30T09:31:35;34.23;29.05
80412;SHT30;69749;42.684;23.360;2023-08-30T09:34:03;34.00;28.74
80412;SHT30;69749;42.684;23.360;2023-08-30T09:36:35;34.16;28.64
80412;SHT30;69749;42.684;23.360;2023-08-30T09:39:12;34.47;28.87
80412;SHT30;69749;42.684;23.360;2023-08-30T09:41:41;34.31;28.86
80412;SHT30;69749;42.684;23.360;2023-08-30T09:44:10;33.94;28.51
80412;SHT30;69749;42.684;23.360;2023-08-30T09:46:44;33.77;28.98
80412;SHT30;69749;42.684;23.360;2023-08-30T09:49:10;33.60;29.16
80412;SHT30;69749;42.684;23.360;2023-08-30T09:51:38;33.65;29.19
80412;SHT30;69749;42.684;23.360;2023-08-30T09:54:15;33.74;29.80
80412;SHT30;69749;42.684;23.360;2023-08-30T09:56:42;33.43;29.98
80412;SHT30;69749;42.684;23.360;2023-08-30T09:59:10;33.58;30.71
80412;SHT30;69749;42.684;23.360;2023-08-30T10:01:36;33.63;30.05
80412;SHT30;69749;42.684;23.360;2023-08-30T10:04:02;33.35;30.32
80412;SHT30;69749;42.684;23.360;2023-08-30T10:06:29;33.11;30.63
80412;SHT30;69749;42.684;23.360;2023-08-30T10:08:56;32.85;31.18
80412;SHT30;69749;42.684;23.360;2023-08-30T10:11:23;32.91;30.54
80412;SHT30;69749;42.684;23.360;2023-08-30T10:13:51;32.90;30.97
80412;SHT30;69749;42.684;23.360;2023-08-30T10:16:20;32.85;31.10
80412;SHT30;69749;42.684;23.360;2023-08-30T10:18:52;33.01;31.42
80412;SHT30;69749;42.684;23.360;2023-08-30T10:21:19;33.11;31.47
80412;SHT30;69749;42.684;23.360;2023-08-30T10:23:47;33.28;31.53
80412;SHT30;69749;42.684;23.360;2023-08-30T10:26:14;32.78;31.17
80412;SHT30;69749;42.684;23.360;2023-08-30T10:28:41;32.53;31.31
80412;SHT30;69749;42.684;23.360;2023-08-30T10:31:07;32.22;31.82
80412;SHT30;69749;42.684;23.360;2023-08-30T10:33:47;32.44;31.40
80412;SHT30;69749;42.684;23.360;2023-08-30T10:36:20;32.61;32.45
80412;SHT30;69749;42.684;23.360;2023-08-30T10:38:52;32.23;31.70
80412;SHT30;69749;42.684;23.360;2023-08-30T10:41:25;31.81;32.09
80412;SHT30;69749;42.684;23.360;2023-08-30T10:43:55;31.65;32.22
80412;SHT30;69749;42.684;23.360;2023-08-30T10:46:34;30.42;34.62
80412;SHT30;69749;42.684;23.360;2023-08-30T10:49:13;30.39;34.41
80412;SHT30;69749;42.684;23.360;2023-08-30T10:51:42;30.72;34.18
80412;SHT30;69749;42.684;23.360;2023-08-30T10:54:14;30.89;34.29
80412;SHT30;69749;42.684;23.360;2023-08-30T10:56:57;30.86;34.35
80412;SHT30;69749;42.684;23.360;2023-08-30T10:59:24;30.97;34.28
80412;SHT30;69749;42.684;23.360;2023-08-30T11:01:51;30.90;34.69
80412;SHT30;69749;42.684;23.360;2023-08-30T11:04:18;30.82;34.45
80412;SHT30;69749;42.684;23.360;2023-08-30T11:06:45;30.89;34.83
80412;SHT30;69749;42.684;23.360;2023-08-30T11:09:15;30.97;34.37
80412;SHT30;69749;42.684;23.360;2023-08-30T11:11:43;31.11;33.53
80412;SHT30;69749;42.684;23.360;2023-08-30T11:14:09;31.01;33.38
80412;SHT30;69749;42.684;23.360;2023-08-30T11:16:39;30.93;34.75
80412;SHT30;69749;42.684;23.360;2023-08-30T11:19:05;30.97;34.65
80412;SHT30;69749;42.684;23.360;2023-08-30T11:21:32;30.87;34.75
80412;SHT30;69749;42.684;23.360;2023-08-30T11:23:58;30.83;34.65
80412;SHT30;69749;42.684;23.360;2023-08-30T11:26:24;30.56;34.54
80412;SHT30;69749;42.684;23.360;2023-08-30T11:28:49;30.46;34.76
80412;SHT30;69749;42.684;23.360;2023-08-30T11:31:27;30.51;34.50
80412;SHT30;69749;42.684;23.360;2023-08-30T11:33:57;29.87;35.62
80412;SHT30;69749;42.684;23.360;2023-08-30T11:36:25;30.09;35.49
80412;SHT30;69749;42.684;23.360;2023-08-30T11:38:52;30.25;35.34
80412;SHT30;69749;42.684;23.360;2023-08-30T11:41:21;30.36;34.87
80412;SHT30;69749;42.684;23.360;2023-08-30T11:43:48;30.43;34.62
80412;SHT30;69749;42.684;23.360;2023-08-30T11:46:14;30.39;34.11
80412;SHT30;69749;42.684;23.360;2023-08-30T11:48:40;30.38;35.31
80412;SHT30;69749;42.684;23.360;2023-08-30T11:51:07;30.43;34.36
80412;SHT30;69749;42.684;23.360;2023-08-30T11:53:33;30.31;35.25
80412;SHT30;69749;42.684;23.360;2023-08-30T11:55:58;30.28;35.12
80412;SHT30;69749;42.684;23.360;2023-08-30T11:58:24;30.18;34.88
80412;SHT30;69749;42.684;23.360;2023-08-30T12:00:50;30.17;34.94
80412;SHT30;69749;42.684;23.360;2023-08-30T12:03:16;30.21;34.35
80412;SHT30;69749;42.684;23.360;2023-08-30T12:05:48;30.29;34.45
80412;SHT30;69749;42.684;23.360;2023-08-30T12:08:23;30.39;33.23
80412;SHT30;69749;42.684;23.360;2023-08-30T12:10:49;30.39;33.37
80412;SHT30;69749;42.684;23.360;2023-08-30T12:13:25;30.38;33.65
80412;SHT30;69749;42.684;23.360;2023-08-30T12:15:51;30.49;33.21
80412;SHT30;69749;42.684;23.360;2023-08-30T12:18:20;30.56;33.16
80412;SHT30;69749;42.684;23.360;2023-08-30T12:21:03;30.46;33.11
80412;SHT30;69749;42.684;23.360;2023-08-30T12:23:32;30.52;33.09
80412;SHT30;69749;42.684;23.360;2023-08-30T12:26:09;30.32;32.97
80412;SHT30;69749;42.684;23.360;2023-08-30T12:28:36;30.39;32.78
80412;SHT30;69749;42.684;23.360;2023-08-30T12:31:02;30.46;33.19
80412;SHT30;69749;42.684;23.360;2023-08-30T12:33:29;30.58;32.55
80412;SHT30;69749;42.684;23.360;2023-08-30T12:35:55;30.73;32.32
80412;SHT30;69749;42.684;23.360;2023-08-30T12:38:21;30.79;31.84
80412;SHT30;69749;42.684;23.360;2023-08-30T12:40:48;30.91;29.85
80412;SHT30;69749;42.684;23.360;2023-08-30T12:43:14;30.93;28.51
80412;SHT30;69749;42.684;23.360;2023-08-30T12:45:41;31.04;28.39
80412;SHT30;69749;42.684;23.360;2023-08-30T12:48:08;31.20;27.83
80412;SHT30;69749;42.684;23.360;2023-08-30T12:50:35;31.31;26.89
80412;SHT30;69749;42.684;23.360;2023-08-30T12:53:01;31.44;27.68
80412;SHT30;69749;42.684;23.360;2023-08-30T12:55:27;31.44;26.31
80412;SHT30;69749;42.684;23.360;2023-08-30T12:57:52;31.48;25.60
80412;SHT30;69749;42.684;23.360;2023-08-30T13:00:18;31.51;26.08
80412;SHT30;69749;42.684;23.360;2023-08-30T13:02:44;31.52;25.42
80412;SHT30;69749;42.684;23.360;2023-08-30T13:05:10;31.49;26.14
80412;SHT30;69749;42.684;23.360;2023-08-30T13:07:36;31.48;26.73
80412;SHT30;69749;42.684;23.360;2023-08-30T13:10:01;31.49;27.84
80412;SHT30;69749;42.684;23.360;2023-08-30T13:12:27;31.52;27.96
80412;SHT30;69749;42.684;23.360;2023-08-30T13:14:53;31.52;27.71
80412;SHT30;69749;42.684;23.360;2023-08-30T13:17:18;31.39;27.50
80412;SHT30;69749;42.684;23.360;2023-08-30T13:19:43;31.45;27.40
80412;SHT30;69749;42.684;23.360;2023-08-30T13:22:09;31.45;27.05
80412;SHT30;69749;42.684;23.360;2023-08-30T13:24:35;31.45;27.31
80412;SHT30;69749;42.684;23.360;2023-08-30T13:27:01;31.57;28.36
80412;SHT30;69749;42.684;23.360;2023-08-30T13:29:26;31.66;25.65
80412;SHT30;69749;42.684;23.360;2023-08-30T13:31:52;31.71;24.94
80412;SHT30;69749;42.684;23.360;2023-08-30T13:34:17;31.75;25.18
80412;SHT30;69749;42.684;23.360;2023-08-30T13:36:42;31.81;25.23
80412;SHT30;69749;42.684;23.360;2023-08-30T13:39:08;31.81;24.19
80412;SHT30;69749;42.684;23.360;2023-08-30T13:41:33;31.76;23.46
80412;SHT30;69749;42.684;23.360;2023-08-30T13:44:01;31.78;24.98
80412;SHT30;69749;42.684;23.360;2023-08-30T13:46:31;31.76;23.96
80412;SHT30;69749;42.684;23.360;2023-08-30T13:48:57;31.84;24.71
80412;SHT30;69749;42.684;23.360;2023-08-30T13:51:24;31.79;24.04
80412;SHT30;69749;42.684;23.360;2023-08-30T13:53:50;31.69;23.60
80412;SHT30;69749;42.684;23.360;2023-08-30T13:56:15;31.72;24.60
80412;SHT30;69749;42.684;23.360;2023-08-30T13:58:41;31.44;23.53
80412;SHT30;69749;42.684;23.360;2023-08-30T14:01:07;31.35;23.88
80412;SHT30;69749;42.684;23.360;2023-08-30T14:03:32;31.35;24.12
80412;SHT30;69749;42.684;23.360;2023-08-30T14:05:58;31.23;24.04
80412;SHT30;69749;42.684;23.360;2023-08-30T14:08:23;31.21;23.82
80412;SHT30;69749;42.684;23.360;2023-08-30T14:10:49;31.30;24.28
80412;SHT30;69749;42.684;23.360;2023-08-30T14:13:14;31.27;24.69
80412;SHT30;69749;42.684;23.360;2023-08-30T14:15:41;31.31;24.56
80412;SHT30;69749;42.684;23.360;2023-08-30T14:18:07;31.28;24.81
80412;SHT30;69749;42.684;23.360;2023-08-30T14:20:32;31.30;24.58
80412;SHT30;69749;42.684;23.360;2023-08-30T14:22:58;31.18;23.84
80412;SHT30;69749;42.684;23.360;2023-08-30T14:25:23;31.17;24.83
80412;SHT30;69749;42.684;23.360;2023-08-30T14:27:49;31.21;25.93
80412;SHT30;69749;42.684;23.360;2023-08-30T14:30:15;31.18;25.29
80412;SHT30;69749;42.684;23.360;2023-08-30T14:32:40;31.17;25.31
80412;SHT30;69749;42.684;23.360;2023-08-30T14:35:06;30.93;25.15
80412;SHT30;69749;42.684;23.360;2023-08-30T14:37:32;30.89;24.72
80412;SHT30;69749;42.684;23.360;2023-08-30T14:39:59;30.86;25.04
80412;SHT30;69749;42.684;23.360;2023-08-30T14:42:25;30.76;25.16
80412;SHT30;69749;42.684;23.360;2023-08-30T14:44:51;30.77;25.80
80412;SHT30;69749;42.684;23.360;2023-08-30T14:47:17;30.69;25.27
80412;SHT30;69749;42.684;23.360;2023-08-30T14:49:44;30.62;25.32
80412;SHT30;69749;42.684;23.360;2023-08-30T14:52:09;30.68;26.25
80412;SHT30;69749;42.684;23.360;2023-08-30T14:54:35;30.58;25.87
80412;SHT30;69749;42.684;23.360;2023-08-30T14:57:00;30.62;26.82
80412;SHT30;69749;42.684;23.360;2023-08-30T14:59:26;30.58;30.56
80412;SHT30;69749;42.684;23.360;2023-08-30T15:01:51;30.62;30.88
80412;SHT30;69749;42.684;23.360;2023-08-30T15:04:17;30.60;31.82
80412;SHT30;69749;42.684;23.360;2023-08-30T15:06:42;30.46;32.11
80412;SHT30;69749;42.684;23.360;2023-08-30T15:09:09;30.46;32.44
80412;SHT30;69749;42.684;23.360;2023-08-30T15:11:35;30.46;32.09
80412;SHT30;69749;42.684;23.360;2023-08-30T15:14:01;30.42;32.35
80412;SHT30;69749;42.684;23.360;2023-08-30T15:16:26;30.36;32.99
80412;SHT30;69749;42.684;23.360;2023-08-30T15:18:51;30.39;32.46
80412;SHT30;69749;42.684;23.360;2023-08-30T15:21:17;30.32;32.58
80412;SHT30;69749;42.684;23.360;2023-08-30T15:23:42;30.25;32.52
80412;SHT30;69749;42.684;23.360;2023-08-30T15:26:08;30.09;33.00